Time,TemperatureF,DewpointF,PressureIn,WindDirection,WindDirectionDegrees,WindSpeedMPH,WindSpeedGustMPH,Humidity,HourlyPrecipIn,Conditions,Clouds,dailyrainin,SoftwareType,DateUTC
2013-05-02 00:04:00,41.8,38.2,30.12,North,0,0.0,0.0,87,0.04,,,0.00,WUHU216HW,2013-05-02 05:04:00,
2013-05-02 00:29:00,41.0,37.5,30.13,North,0,0.0,0.0,87,0.01,,,0.00,WUHU216HW,2013-05-02 05:29:00,
2013-05-02 00:34:00,41.0,37.5,30.13,North,0,0.0,0.0,87,0.01,,,0.00,WUHU216HW,2013-05-02 05:34:00,
2013-05-02 00:59:00,41.0,37.5,30.14,North,0,0.0,0.0,87,0.00,,,0.00,WUHU216HW,2013-05-02 05:59:00,
2013-05-02 01:04:00,41.0,37.5,30.14,North,0,0.0,0.0,87,0.00,,,0.00,WUHU216HW,2013-05-02 06:04:00,
2013-05-02 01:29:00,40.7,37.4,30.15,North,0,0.0,0.0,88,0.00,,,0.00,WUHU216HW,2013-05-02 06:29:00,
2013-05-02 01:34:00,40.7,37.4,30.15,North,0,0.0,0.0,88,0.00,,,0.00,WUHU216HW,2013-05-02 06:34:00,
2013-05-02 01:59:00,40.9,37.5,30.17,North,0,0.0,0.0,88,0.00,,,0.00,WUHU216HW,2013-05-02 06:59:00,
2013-05-02 02:04:00,40.9,37.5,30.17,North,0,0.0,0.0,88,0.00,,,0.00,WUHU216HW,2013-05-02 07:04:00,
2013-05-02 02:29:00,41.0,37.5,30.18,North,0,0.0,0.0,87,0.00,,,0.00,WUHU216HW,2013-05-02 07:29:00,
2013-05-02 02:34:00,41.0,37.5,30.18,North,0,0.0,0.0,87,0.00,,,0.00,WUHU216HW,2013-05-02 07:34:00,
2013-05-02 02:59:00,40.7,37.7,30.17,North,0,0.0,0.0,89,0.00,,,0.00,WUHU216HW,2013-05-02 07:59:00,
2013-05-02 03:04:00,40.7,37.7,30.17,North,0,0.0,0.0,89,0.00,,,0.00,WUHU216HW,2013-05-02 08:04:00,
2013-05-02 03:29:00,40.9,37.9,30.18,North,0,0.0,0.0,89,0.01,,,0.00,WUHU216HW,2013-05-02 08:29:00,
2013-05-02 03:34:00,40.9,37.9,30.18,North,0,0.0,0.0,89,0.01,,,0.00,WUHU216HW,2013-05-02 08:34:00,
2013-05-02 03:59:00,40.7,37.7,30.18,North,0,0.0,0.0,89,0.01,,,0.01,WUHU216HW,2013-05-02 08:59:00,
2013-05-02 04:04:00,40.7,37.7,30.18,North,0,0.0,0.0,89,0.01,,,0.01,WUHU216HW,2013-05-02 09:04:00,
2013-05-02 04:29:00,40.7,37.7,30.19,North,0,0.0,0.0,89,0.02,,,0.01,WUHU216HW,2013-05-02 09:29:00,
2013-05-02 04:34:00,40.7,37.7,30.19,North,0,0.0,0.0,89,0.02,,,0.01,WUHU216HW,2013-05-02 09:34:00,
2013-05-02 04:59:00,41.0,38.3,30.20,North,0,0.0,0.0,90,0.02,,,0.03,WUHU216HW,2013-05-02 09:59:00,
2013-05-02 05:04:00,41.0,38.3,30.20,North,0,0.0,0.0,90,0.02,,,0.03,WUHU216HW,2013-05-02 10:04:00,
2013-05-02 05:29:00,40.7,38.0,30.21,North,0,0.0,0.0,90,0.01,,,0.03,WUHU216HW,2013-05-02 10:29:00,
2013-05-02 05:34:00,40.7,38.0,30.21,North,0,0.0,0.0,90,0.01,,,0.03,WUHU216HW,2013-05-02 10:34:00,
2013-05-02 05:59:00,40.3,37.6,30.20,North,0,0.0,0.0,90,0.01,,,0.04,WUHU216HW,2013-05-02 10:59:00,
2013-05-02 06:04:00,40.3,37.6,30.20,North,0,0.0,0.0,90,0.01,,,0.04,WUHU216HW,2013-05-02 11:04:00,
2013-05-02 06:29:00,40.3,37.6,30.22,North,0,0.0,0.0,90,0.04,,,0.04,WUHU216HW,2013-05-02 11:29:00,
2013-05-02 06:34:00,40.3,37.6,30.22,North,0,0.0,0.0,90,0.04,,,0.04,WUHU216HW,2013-05-02 11:34:00,
2013-05-02 06:59:00,40.0,37.3,30.22,North,0,0.0,0.0,90,0.05,,,0.08,WUHU216HW,2013-05-02 11:59:00,
2013-05-02 07:04:00,40.0,37.3,30.22,North,0,0.0,0.0,90,0.05,,,0.08,WUHU216HW,2013-05-02 12:04:00,
2013-05-02 07:30:00,40.3,37.6,30.24,North,0,0.0,0.0,90,0.01,,,0.09,WUHU216HW,2013-05-02 12:30:00,
2013-05-02 07:34:00,40.3,37.6,30.24,North,0,0.0,0.0,90,0.01,,,0.09,WUHU216HW,2013-05-02 12:34:00,
2013-05-02 07:59:00,40.1,37.4,30.26,North,0,0.0,0.0,90,0.00,,,0.09,WUHU216HW,2013-05-02 12:59:00,
2013-05-02 08:04:00,40.1,37.4,30.26,North,0,0.0,0.0,90,0.00,,,0.09,WUHU216HW,2013-05-02 13:04:00,
2013-05-02 08:29:00,39.6,36.9,30.28,North,0,0.0,0.0,90,0.00,,,0.09,WUHU216HW,2013-05-02 13:29:00,
2013-05-02 08:34:00,39.6,36.9,30.28,North,0,0.0,0.0,90,0.00,,,0.09,WUHU216HW,2013-05-02 13:34:00,
2013-05-02 08:59:00,39.1,36.1,30.28,North,0,0.0,0.0,89,0.00,,,0.09,WUHU216HW,2013-05-02 13:59:00,
2013-05-02 09:04:00,39.1,36.1,30.28,North,0,0.0,0.0,89,0.00,,,0.09,WUHU216HW,2013-05-02 14:04:00,
2013-05-02 09:29:00,38.7,36.0,30.30,North,0,0.0,0.0,90,0.02,,,0.09,WUHU216HW,2013-05-02 14:29:00,
2013-05-02 09:34:00,38.7,36.0,30.30,North,0,0.0,0.0,90,0.02,,,0.09,WUHU216HW,2013-05-02 14:34:00,
2013-05-02 09:59:00,38.5,35.8,30.30,North,0,0.0,0.0,90,0.03,,,0.11,WUHU216HW,2013-05-02 14:59:00,
2013-05-02 10:04:00,38.5,35.8,30.30,North,0,0.0,0.0,90,0.03,,,0.11,WUHU216HW,2013-05-02 15:04:00,
2013-05-02 10:29:00,38.2,35.5,30.30,North,0,0.0,0.0,90,0.05,,,0.12,WUHU216HW,2013-05-02 15:29:00,
2013-05-02 10:34:00,38.2,35.5,30.30,North,0,0.0,0.0,90,0.05,,,0.12,WUHU216HW,2013-05-02 15:34:00,
2013-05-02 10:59:00,37.8,35.1,30.31,North,0,0.0,0.0,90,0.09,,,0.16,WUHU216HW,2013-05-02 15:59:00,
2013-05-02 11:04:00,37.8,35.1,30.31,North,0,0.0,0.0,90,0.09,,,0.16,WUHU216HW,2013-05-02 16:04:00,
2013-05-02 11:29:00,37.8,35.1,30.31,North,0,0.0,0.0,90,0.09,,,0.21,WUHU216HW,2013-05-02 16:29:00,
2013-05-02 11:34:00,37.8,35.1,30.31,North,0,0.0,0.0,90,0.09,,,0.21,WUHU216HW,2013-05-02 16:34:00,
2013-05-02 11:59:00,38.0,35.3,30.31,North,0,0.0,0.0,90,0.04,,,0.26,WUHU216HW,2013-05-02 16:59:00,
2013-05-02 12:04:00,38.0,35.3,30.31,North,0,0.0,0.0,90,0.04,,,0.26,WUHU216HW,2013-05-02 17:04:00,
2013-05-02 12:29:00,37.8,35.1,30.29,North,0,0.0,0.0,90,0.02,,,0.26,WUHU216HW,2013-05-02 17:29:00,
2013-05-02 12:34:00,37.8,35.1,30.29,North,0,0.0,0.0,90,0.02,,,0.26,WUHU216HW,2013-05-02 17:34:00,
2013-05-02 12:59:00,37.6,34.9,30.32,North,0,0.0,0.0,90,0.05,,,0.27,WUHU216HW,2013-05-02 17:59:00,
2013-05-02 13:04:00,37.6,34.9,30.32,North,0,0.0,0.0,90,0.05,,,0.27,WUHU216HW,2013-05-02 18:04:00,
2013-05-02 13:29:00,36.9,34.2,30.30,North,0,0.0,0.0,90,0.10,,,0.31,WUHU216HW,2013-05-02 18:29:00,
2013-05-02 13:34:00,36.9,34.2,30.30,North,0,0.0,0.0,90,0.10,,,0.31,WUHU216HW,2013-05-02 18:34:00,
2013-05-02 13:59:00,36.4,33.7,30.31,NE,45,3.1,3.1,90,0.10,,,0.38,WUHU216HW,2013-05-02 18:59:00,
2013-05-02 14:04:00,36.4,33.7,30.31,NE,45,3.1,3.1,90,0.10,,,0.38,WUHU216HW,2013-05-02 19:04:00,
2013-05-02 14:29:00,35.3,32.6,30.31,SSW,203,0.9,0.9,90,0.05,,,0.40,WUHU216HW,2013-05-02 19:29:00,
2013-05-02 14:35:00,35.3,32.6,30.31,SSW,203,0.9,0.9,90,0.05,,,0.40,WUHU216HW,2013-05-02 19:35:00,
2013-05-02 14:59:00,35.1,32.7,30.33,WSW,248,2.9,2.9,91,0.04,,,0.43,WUHU216HW,2013-05-02 19:59:00,
2013-05-02 15:04:00,35.1,32.7,30.33,WSW,248,2.9,2.9,91,0.04,,,0.43,WUHU216HW,2013-05-02 20:04:00,
2013-05-02 15:29:00,34.0,31.3,30.32,East,90,1.8,1.8,90,0.01,,,0.45,WUHU216HW,2013-05-02 20:29:00,
2013-05-02 15:34:00,34.0,31.3,30.32,East,90,1.8,1.8,90,0.01,,,0.45,WUHU216HW,2013-05-02 20:34:00,
2013-05-02 15:59:00,33.5,31.1,30.33,WNW,293,1.6,1.6,91,0.00,,,0.45,WUHU216HW,2013-05-02 20:59:00,
2013-05-02 16:04:00,33.5,31.1,30.33,WNW,293,1.6,1.6,91,0.00,,,0.45,WUHU216HW,2013-05-02 21:04:00,
2013-05-02 16:29:00,33.1,31.1,30.32,NE,45,0.2,0.2,92,0.00,,,0.45,WUHU216HW,2013-05-02 21:29:00,
2013-05-02 16:34:00,33.1,31.1,30.32,NE,45,0.2,0.2,92,0.00,,,0.45,WUHU216HW,2013-05-02 21:34:00,
2013-05-02 16:59:00,33.1,31.1,30.33,North,0,0.0,0.0,92,0.01,,,0.45,WUHU216HW,2013-05-02 21:59:00,
2013-05-02 17:04:00,33.1,31.1,30.33,North,0,0.0,0.0,92,0.01,,,0.45,WUHU216HW,2013-05-02 22:04:00,
2013-05-02 17:29:00,33.3,31.1,30.32,North,0,0.0,0.0,92,0.02,,,0.46,WUHU216HW,2013-05-02 22:29:00,
2013-05-02 17:34:00,33.3,31.1,30.32,North,0,0.0,0.0,92,0.02,,,0.46,WUHU216HW,2013-05-02 22:34:00,
2013-05-02 17:59:00,33.5,31.3,30.32,East,90,2.5,2.5,92,0.03,,,0.47,WUHU216HW,2013-05-02 22:59:00,
2013-05-02 18:04:00,33.5,31.3,30.32,East,90,2.5,2.5,92,0.03,,,0.47,WUHU216HW,2013-05-02 23:04:00,
2013-05-02 18:30:00,33.5,31.3,30.31,WNW,293,2.7,2.7,92,0.03,,,0.49,WUHU216HW,2013-05-02 23:30:00,
2013-05-02 18:35:00,33.5,31.3,30.31,WNW,293,2.7,2.7,92,0.03,,,0.49,WUHU216HW,2013-05-02 23:35:00,
2013-05-02 18:59:00,33.5,31.3,30.31,SE,135,3.6,3.6,92,0.02,,,0.50,WUHU216HW,2013-05-02 23:59:00,
2013-05-02 19:04:00,33.5,31.3,30.31,SE,135,3.6,3.6,92,0.02,,,0.50,WUHU216HW,2013-05-03 00:04:00,
2013-05-02 19:29:00,33.3,31.4,30.32,North,0,0.0,0.0,93,0.02,,,0.51,WUHU216HW,2013-05-03 00:29:00,
2013-05-02 19:35:00,33.3,31.4,30.32,North,0,0.0,0.0,93,0.02,,,0.51,WUHU216HW,2013-05-03 00:35:00,
2013-05-02 19:59:00,32.9,30.9,30.31,North,0,0.0,0.0,92,0.01,,,0.52,WUHU216HW,2013-05-03 00:59:00,
2013-05-02 20:04:00,32.9,30.9,30.31,North,0,0.0,0.0,92,0.01,,,0.52,WUHU216HW,2013-05-03 01:04:00,
2013-05-02 20:29:00,32.8,30.7,30.31,North,0,0.0,0.0,92,0.00,,,0.52,WUHU216HW,2013-05-03 01:29:00,
2013-05-02 20:34:00,32.8,30.7,30.31,North,0,0.0,0.0,92,0.00,,,0.52,WUHU216HW,2013-05-03 01:34:00,
2013-05-02 20:59:00,33.3,31.1,30.32,North,0,0.0,0.0,92,0.01,,,0.52,WUHU216HW,2013-05-03 01:59:00,
2013-05-02 21:04:00,33.3,31.1,30.32,North,0,0.0,0.0,92,0.01,,,0.52,WUHU216HW,2013-05-03 02:04:00,
2013-05-02 21:29:00,33.5,31.3,30.32,North,0,0.0,0.0,92,0.02,,,0.53,WUHU216HW,2013-05-03 02:29:00,
2013-05-02 21:34:00,33.5,31.3,30.32,North,0,0.0,0.0,92,0.02,,,0.53,WUHU216HW,2013-05-03 02:34:00,
2013-05-02 21:59:00,33.5,31.6,30.30,North,0,0.0,0.0,93,0.02,,,0.54,WUHU216HW,2013-05-03 02:59:00,
2013-05-02 22:04:00,33.5,31.6,30.30,North,0,0.0,0.0,93,0.02,,,0.54,WUHU216HW,2013-05-03 03:04:00,
2013-05-02 22:29:00,33.7,31.5,30.29,NNE,23,1.1,1.1,92,0.02,,,0.55,WUHU216HW,2013-05-03 03:29:00,
2013-05-02 22:34:00,33.7,31.5,30.29,NNE,23,1.1,1.1,92,0.02,,,0.55,WUHU216HW,2013-05-03 03:34:00,
2013-05-02 22:59:00,33.8,32.0,30.27,WNW,293,0.4,0.4,93,0.02,,,0.56,WUHU216HW,2013-05-03 03:59:00,
2013-05-02 23:01:00,33.8,32.0,30.27,WNW,293,0.4,0.4,93,0.02,,,0.56,WUHU216HW,2013-05-03 04:01:00,
2013-05-02 23:06:00,33.8,32.0,30.27,WNW,293,0.4,0.4,93,0.02,,,0.56,WUHU216HW,2013-05-03 04:06:00,
2013-05-02 23:29:00,34.0,31.9,30.25,North,0,1.1,1.1,92,0.02,,,0.57,WUHU216HW,2013-05-03 04:29:00,
2013-05-02 23:34:00,34.0,31.9,30.25,North,0,1.1,1.1,92,0.02,,,0.57,WUHU216HW,2013-05-03 04:34:00,
2013-05-02 23:59:00,34.2,32.0,30.25,NNE,23,0.4,0.4,92,0.01,,,0.00,WUHU216HW,2013-05-03 04:59:00,